Time;durP1;ratioP1;P1;durP2;ratioP2;P2;SDS_P1;SDS_P2;PMS_P1;PMS_P2;Temp;Humidity;BMP_temperature;BMP_pressure;BME280_temperature;BME280_humidity;BME280_pressure;Samples;Min_cycle;Max_cycle;Signal;HPM_P1;HPM_P2
2024/02/18 00:00:08;;;;;;;38.20;26.48;;;;;;;7.47;100.00;99832.63;6199827;22;20659;-74
2024/02/18 00:02:36;;;;;;;36.85;25.50;;;;;;;7.50;100.00;99837.59;6230609;22;20664;-74
2024/02/18 00:05:04;;;;;;;37.55;25.73;;;;;;;7.48;100.00;99827.34;6230583;22;20034;-71
2024/02/18 00:07:31;;;;;;;36.90;25.00;;;;;;;7.54;100.00;99838.22;6228263;22;20018;-74
2024/02/18 00:10:00;;;;;;;35.72;25.63;;;;;;;7.58;100.00;99824.19;6204789;22;20043;-71
2024/02/18 00:12:28;;;;;;;37.78;25.98;;;;;;;7.53;100.00;99832.22;6227092;22;20023;-73
2024/02/18 00:14:56;;;;;;;39.78;26.48;;;;;;;7.13;100.00;99827.72;6205989;22;20022;-71
2024/02/18 00:17:22;;;;;;;38.13;26.45;;;;;;;7.04;100.00;99836.03;6229075;22;20105;-73
2024/02/18 00:19:50;;;;;;;39.63;26.40;;;;;;;7.20;100.00;99838.53;6227835;22;20592;-71
2024/02/18 00:22:17;;;;;;;37.08;24.95;;;;;;;7.23;100.00;99838.38;6204452;22;20440;-68
2024/02/18 00:24:43;;;;;;;38.75;25.48;;;;;;;7.15;100.00;99843.16;6214607;23;20081;-72
2024/02/18 00:27:09;;;;;;;38.95;26.27;;;;;;;7.22;100.00;99836.69;6202865;22;20095;-74
2024/02/18 00:29:35;;;;;;;41.45;25.42;;;;;;;7.28;100.00;99844.09;6201181;22;20416;-75
2024/02/18 00:32:02;;;;;;;38.60;26.10;;;;;;;7.16;100.00;99844.00;6228899;22;20536;-74
2024/02/18 00:34:30;;;;;;;38.42;24.77;;;;;;;7.23;100.00;99838.38;6227910;22;20003;-73
2024/02/18 00:36:55;;;;;;;36.75;25.08;;;;;;;7.29;100.00;99829.41;6226654;22;20011;-73
2024/02/18 00:39:23;;;;;;;36.08;25.00;;;;;;;7.29;100.00;99819.06;6203100;22;20027;-73
2024/02/18 00:41:49;;;;;;;38.00;24.65;;;;;;;7.19;100.00;99816.22;6227238;22;20015;-73
2024/02/18 00:44:14;;;;;;;33.47;24.55;;;;;;;7.09;100.00;99815.91;6203141;22;20101;-72
2024/02/18 00:46:39;;;;;;;37.20;25.15;;;;;;;7.18;100.00;99824.88;6222468;23;20421;-75
2024/02/18 00:49:07;;;;;;;35.85;25.15;;;;;;;7.17;100.00;99822.38;6193724;22;20621;-73
2024/02/18 00:51:32;;;;;;;39.50;24.85;;;;;;;7.17;100.00;99823.19;6226793;22;20708;-72
2024/02/18 00:54:00;;;;;;;36.65;23.80;;;;;;;7.06;100.00;99830.78;6227834;22;20090;-73
2024/02/18 00:56:25;;;;;;;33.20;24.33;;;;;;;6.74;100.00;99798.19;6195804;23;20369;-70
2024/02/18 00:58:56;;;;;;;38.47;25.33;;;;;;;6.44;100.00;99754.28;6194783;22;20065;-67
2024/02/18 01:01:24;;;;;;;34.28;24.85;;;;;;;6.96;100.00;99824.53;6201420;22;20444;-69
2024/02/18 01:04:08;;;;;;;34.83;23.95;;;;;;;7.00;100.00;99831.16;6199860;22;20011;-69
2024/02/18 01:06:36;;;;;;;37.78;23.45;;;;;;;6.97;100.00;99827.00;6257719;22;20549;-73
2024/02/18 01:09:02;;;;;;;34.95;23.33;;;;;;;6.84;100.00;99816.56;6200457;22;20011;-73
2024/02/18 01:11:27;;;;;;;35.60;24.40;;;;;;;6.94;100.00;99832.38;6204135;22;20065;-73
2024/02/18 01:13:53;;;;;;;36.28;24.63;;;;;;;6.92;100.00;99834.22;6198671;22;20809;-71
2024/02/18 01:16:23;;;;;;;35.03;23.83;;;;;;;6.91;100.00;99837.72;6203047;22;20004;-71
2024/02/18 01:18:50;;;;;;;34.88;23.10;;;;;;;6.76;100.00;99828.28;6225755;22;20015;-74
2024/02/18 01:21:18;;;;;;;36.35;24.52;;;;;;;6.81;100.00;99832.25;6227732;22;20034;-70
2024/02/18 01:23:43;;;;;;;34.00;24.00;;;;;;;6.85;100.00;99836.31;6227481;22;20011;-75
2024/02/18 01:26:09;;;;;;;34.88;23.98;;;;;;;6.62;100.00;99840.25;6226976;22;20015;-74
2024/02/18 01:28:34;;;;;;;36.15;23.85;;;;;;;6.26;100.00;99792.38;6203432;22;20504;-70
2024/02/18 01:31:00;;;;;;;33.47;23.63;;;;;;;6.58;100.00;99836.19;6202884;22;20062;-70
2024/02/18 01:33:28;;;;;;;38.60;24.92;;;;;;;6.71;100.00;99846.66;6230626;22;20042;-74
2024/02/18 01:35:54;;;;;;;34.22;23.60;;;;;;;6.80;100.00;99840.94;6201408;22;20011;-71
2024/02/18 01:38:19;;;;;;;36.20;23.25;;;;;;;6.81;100.00;99840.03;6205327;22;20110;-72
2024/02/18 01:40:47;;;;;;;36.78;24.13;;;;;;;6.78;100.00;99841.94;6201164;22;20146;-71
2024/02/18 01:43:20;;;;;;;34.28;23.60;;;;;;;6.80;100.00;99853.84;6202995;22;20007;-75
2024/02/18 01:45:49;;;;;;;33.90;23.17;;;;;;;6.85;100.00;99845.84;6201795;22;20007;-72
2024/02/18 01:48:15;;;;;;;31.83;22.80;;;;;;;6.72;100.00;99853.50;6228410;22;20011;-72
2024/02/18 01:50:44;;;;;;;35.88;24.58;;;;;;;6.78;100.00;99847.94;6200996;22;20500;-72
2024/02/18 01:53:09;;;;;;;32.72;22.92;;;;;;;6.74;100.00;99860.22;6229895;22;20012;-74
2024/02/18 01:55:35;;;;;;;36.03;24.63;;;;;;;6.64;100.00;99850.50;6202810;22;20018;-73
2024/02/18 01:58:01;;;;;;;33.78;24.00;;;;;;;6.76;100.00;99867.88;6204098;22;20503;-74
2024/02/18 02:00:29;;;;;;;34.45;23.73;;;;;;;6.74;100.00;99857.63;6196347;23;20038;-72
2024/02/18 02:02:55;;;;;;;34.95;23.83;;;;;;;6.85;100.00;99856.19;6252154;22;20027;-74
2024/02/18 02:05:21;;;;;;;34.45;24.35;;;;;;;6.94;100.00;99853.06;6228198;22;20265;-68
2024/02/18 02:07:49;;;;;;;37.30;25.15;;;;;;;6.95;100.00;99849.53;6201246;22;20371;-75
2024/02/18 02:10:16;;;;;;;35.33;25.10;;;;;;;6.97;100.00;99845.09;6201800;22;20101;-71
2024/02/18 02:12:42;;;;;;;35.35;24.40;;;;;;;6.98;100.00;99849.34;6203695;22;20016;-74
2024/02/18 02:15:09;;;;;;;35.50;23.48;;;;;;;6.92;100.00;99835.03;6227357;22;20061;-75
2024/02/18 02:17:34;;;;;;;37.10;24.52;;;;;;;7.08;100.00;99844.44;6229381;22;20037;-73
2024/02/18 02:20:00;;;;;;;35.85;24.83;;;;;;;7.09;100.00;99853.88;6227327;22;20004;-75
2024/02/18 02:22:30;;;;;;;40.72;24.73;;;;;;;6.79;100.00;99808.25;6228882;22;20632;-68
2024/02/18 02:24:58;;;;;;;37.30;24.60;;;;;;;7.02;100.00;99840.47;6203241;22;20011;-73
2024/02/18 02:27:26;;;;;;;37.78;23.70;;;;;;;6.90;100.00;99833.47;6227427;22;20008;-69
2024/02/18 02:29:52;;;;;;;35.05;24.05;;;;;;;6.97;100.00;99844.28;6227456;22;20039;-72
2024/02/18 02:32:17;;;;;;;36.47;24.48;;;;;;;7.00;100.00;99836.34;6199994;22;20047;-72
2024/02/18 02:34:45;;;;;;;35.60;23.02;;;;;;;7.05;100.00;99839.50;6216930;23;20368;-73
2024/02/18 02:37:11;;;;;;;32.80;22.40;;;;;;;6.74;100.00;99774.09;6201079;22;20463;-74
2024/02/18 02:39:36;;;;;;;32.78;23.10;;;;;;;6.97;100.00;99814.06;6202675;22;20019;-75
2024/02/18 02:42:05;;;;;;;31.70;22.35;;;;;;;7.08;100.00;99811.69;6227026;22;20008;-73
2024/02/18 02:44:30;;;;;;;32.83;22.83;;;;;;;7.17;100.00;99817.19;6205485;22;20018;-74
2024/02/18 02:46:56;;;;;;;31.63;22.05;;;;;;;7.10;100.00;99816.75;6229906;22;20004;-72
2024/02/18 02:49:26;;;;;;;32.42;22.10;;;;;;;7.09;100.00;99808.16;6230841;22;20014;-69
2024/02/18 02:51:51;;;;;;;30.38;21.10;;;;;;;7.12;100.00;99814.91;6230899;22;20015;-73
2024/02/18 02:54:19;;;;;;;31.65;22.30;;;;;;;7.10;100.00;99802.06;6205095;22;20409;-75
2024/02/18 02:56:46;;;;;;;29.52;20.80;;;;;;;7.02;100.00;99801.69;6258333;22;20019;-71
2024/02/18 02:59:16;;;;;;;33.05;21.33;;;;;;;7.01;100.00;99797.47;6205307;22;20682;-72
2024/02/18 03:01:44;;;;;;;31.63;22.05;;;;;;;7.11;100.00;99803.72;6227776;22;20007;-70
2024/02/18 03:04:09;;;;;;;31.23;21.13;;;;;;;7.07;100.00;99799.66;6202784;22;20684;-74
2024/02/18 03:06:35;;;;;;;28.92;20.92;;;;;;;7.19;100.00;99816.22;6254114;22;20012;-69
2024/02/18 03:09:03;;;;;;;28.90;20.85;;;;;;;6.89;100.00;99762.81;6227522;22;20554;-74
2024/02/18 03:11:28;;;;;;;30.15;21.33;;;;;;;7.07;100.00;99811.78;6201641;22;20035;-73
2024/02/18 03:13:56;;;;;;;32.05;20.85;;;;;;;6.96;100.00;99796.91;6227966;22;20586;-69
2024/02/18 03:16:24;;;;;;;31.83;21.42;;;;;;;7.01;100.00;99796.59;6226872;22;20075;-74
2024/02/18 03:18:50;;;;;;;28.98;20.20;;;;;;;7.04;100.00;99805.00;6231970;22;20015;-74
2024/02/18 03:21:15;;;;;;;26.95;19.77;;;;;;;7.03;100.00;99805.94;6204385;22;20016;-72
2024/02/18 03:23:45;;;;;;;30.10;19.88;;;;;;;7.00;100.00;99803.53;6199686;23;20123;-73
2024/02/18 03:26:11;;;;;;;29.35;19.73;;;;;;;6.97;100.00;99788.19;6204834;22;20007;-72
2024/02/18 03:28:36;;;;;;;27.50;20.05;;;;;;;7.02;100.00;99804.28;6204018;22;20022;-74
2024/02/18 03:31:04;;;;;;;29.55;19.90;;;;;;;6.99;100.00;99811.38;6204666;22;20850;-68
2024/02/18 03:33:32;;;;;;;28.75;19.90;;;;;;;6.90;100.00;99805.03;6206449;22;20444;-73
2024/02/18 03:36:01;;;;;;;27.27;20.20;;;;;;;6.86;100.00;99806.97;6205422;22;20008;-72
2024/02/18 03:38:26;;;;;;;26.42;20.30;;;;;;;6.96;100.00;99820.16;6205525;22;20069;-73
2024/02/18 03:40:52;;;;;;;28.02;20.73;;;;;;;6.97;100.00;99815.81;6201084;22;20028;-72
2024/02/18 03:43:17;;;;;;;28.42;19.90;;;;;;;6.57;100.00;99766.50;6199437;23;20432;-69
2024/02/18 03:45:45;;;;;;;32.53;20.92;;;;;;;6.90;100.00;99817.97;6197129;22;20072;-73
2024/02/18 03:48:10;;;;;;;28.23;20.30;;;;;;;6.88;100.00;99799.09;6204874;22;20010;-75
2024/02/18 03:50:35;;;;;;;28.30;20.05;;;;;;;6.97;100.00;99810.66;6204267;22;20015;-75
2024/02/18 03:53:01;;;;;;;27.92;20.33;;;;;;;6.96;100.00;99796.91;6201587;22;20077;-72
2024/02/18 03:55:29;;;;;;;29.27;20.05;;;;;;;6.64;100.00;99803.97;6203581;22;20015;-75
2024/02/18 03:57:55;;;;;;;26.08;20.05;;;;;;;6.68;100.00;99800.28;6230423;22;20008;-71
2024/02/18 04:00:25;;;;;;;31.65;20.27;;;;;;;6.73;100.00;99814.63;6205269;22;20038;-74
2024/02/18 04:02:53;;;;;;;29.58;20.10;;;;;;;6.84;100.00;99819.13;6203512;22;20551;-75
2024/02/18 04:05:20;;;;;;;29.48;20.08;;;;;;;6.54;100.00;99765.75;6205659;22;20014;-70
2024/02/18 04:07:48;;;;;;;29.15;20.27;;;;;;;6.86;100.00;99813.88;6229130;22;20036;-72
2024/02/18 04:10:13;;;;;;;27.33;19.45;;;;;;;6.72;100.00;99817.31;6232304;22;20015;-73
2024/02/18 04:12:41;;;;;;;28.17;20.20;;;;;;;6.77;100.00;99820.41;6202767;22;20016;-73
2024/02/18 04:15:07;;;;;;;30.23;20.33;;;;;;;6.76;100.00;99823.94;6207005;22;20016;-72
2024/02/18 04:17:32;;;;;;;30.15;20.02;;;;;;;6.54;100.00;99829.53;6230416;22;20054;-74
2024/02/18 04:19:58;;;;;;;28.30;19.33;;;;;;;6.59;100.00;99826.69;6205557;22;20019;-74
2024/02/18 04:22:25;;;;;;;33.03;20.55;;;;;;;6.59;100.00;99843.03;6231865;22;20022;-72
2024/02/18 04:24:51;;;;;;;27.42;20.38;;;;;;;6.59;100.00;99832.69;6230082;22;20086;-68
2024/02/18 04:27:21;;;;;;;26.90;19.67;;;;;;;6.64;100.00;99838.41;6206817;22;20022;-74
2024/02/18 04:29:49;;;;;;;29.27;19.23;;;;;;;6.29;100.00;99776.69;6202338;22;20554;-74
2024/02/18 04:32:17;;;;;;;29.15;19.33;;;;;;;6.58;100.00;99832.78;6207759;22;20681;-72
2024/02/18 04:34:44;;;;;;;28.50;20.42;;;;;;;6.24;100.00;99776.16;6204593;22;20012;-72
2024/02/18 04:37:09;;;;;;;27.27;20.30;;;;;;;6.56;100.00;99835.44;6231798;22;20101;-72
2024/02/18 04:39:34;;;;;;;27.95;19.05;;;;;;;6.51;100.00;99820.19;6202772;22;20744;-76
2024/02/18 04:42:02;;;;;;;28.70;19.90;;;;;;;6.40;100.00;99821.75;6229038;22;20007;-75
2024/02/18 04:44:28;;;;;;;28.20;19.60;;;;;;;6.44;100.00;99825.81;6228203;22;20008;-71
2024/02/18 04:46:55;;;;;;;29.23;20.20;;;;;;;6.39;100.00;99825.25;6229653;22;20079;-72
2024/02/18 04:49:21;;;;;;;29.05;19.85;;;;;;;6.47;100.00;99836.81;6231108;22;20007;-72
2024/02/18 04:51:46;;;;;;;27.50;19.23;;;;;;;6.42;100.00;99832.81;6228725;22;20073;-74
2024/02/18 04:54:14;;;;;;;27.92;19.58;;;;;;;6.10;100.00;99789.03;6230727;22;20105;-74
2024/02/18 04:56:39;;;;;;;30.90;19.83;;;;;;;6.18;100.00;99829.91;6203954;22;20011;-73
2024/02/18 04:59:04;;;;;;;28.23;19.60;;;;;;;6.21;100.00;99838.31;6230612;22;20023;-70
2024/02/18 05:01:30;;;;;;;28.58;20.52;;;;;;;6.10;100.00;99844.06;6204607;22;20022;-71
2024/02/18 05:03:57;;;;;;;34.00;19.77;;;;;;;6.18;100.00;99850.56;6203184;22;20018;-76
2024/02/18 05:06:23;;;;;;;29.60;19.20;;;;;;;5.82;100.00;99779.38;6230263;22;20010;-71
2024/02/18 05:08:51;;;;;;;31.40;21.55;;;;;;;6.20;100.00;99841.78;6202311;22;20471;-69
2024/02/18 05:11:16;;;;;;;27.35;20.92;;;;;;;6.22;100.00;99842.53;6204295;22;20654;-75
2024/02/18 05:13:46;;;;;;;28.95;20.20;;;;;;;6.15;100.00;99843.81;6217950;23;20035;-73
2024/02/18 05:16:12;;;;;;;29.42;20.27;;;;;;;6.20;100.00;99834.03;6228526;22;20004;-67
2024/02/18 05:18:38;;;;;;;30.55;21.08;;;;;;;6.18;100.00;99841.06;6204409;22;20018;-72
2024/02/18 05:21:06;;;;;;;29.38;19.63;;;;;;;6.19;100.00;99837.56;6229372;22;20008;-71
2024/02/18 05:23:35;;;;;;;27.30;19.90;;;;;;;6.16;100.00;99838.56;6232602;22;20820;-71
2024/02/18 05:26:04;;;;;;;27.83;19.83;;;;;;;6.02;100.00;99833.31;6202664;22;20031;-71
2024/02/18 05:28:33;;;;;;;29.02;19.50;;;;;;;6.09;100.00;99842.41;6231642;22;20226;-71
2024/02/18 05:30:58;;;;;;;25.77;19.07;;;;;;;6.10;100.00;99845.84;6254843;22;19999;-73
2024/02/18 05:33:24;;;;;;;27.40;19.67;;;;;;;6.11;100.00;99835.38;6206412;22;20118;-71
2024/02/18 05:35:50;;;;;;;27.02;20.10;;;;;;;6.04;100.00;99828.94;6225863;22;20035;-71
2024/02/18 05:38:15;;;;;;;27.35;20.67;;;;;;;6.11;100.00;99843.13;6226756;22;20058;-73
2024/02/18 05:40:43;;;;;;;28.88;20.77;;;;;;;6.00;100.00;99840.31;6230044;22;20034;-73
2024/02/18 05:43:09;;;;;;;29.50;19.40;;;;;;;6.03;100.00;99844.50;6202327;22;20012;-71
2024/02/18 05:45:36;;;;;;;27.85;19.42;;;;;;;6.03;100.00;99835.00;6230846;22;20019;-72
2024/02/18 05:48:02;;;;;;;29.13;19.98;;;;;;;6.01;100.00;99836.84;6205568;22;20012;-74
2024/02/18 05:50:30;;;;;;;27.58;19.35;;;;;;;5.75;100.00;99835.69;6243154;22;20077;-71
2024/02/18 05:52:57;;;;;;;27.90;19.55;;;;;;;5.75;100.00;99825.34;6249304;22;20018;-68
2024/02/18 05:55:23;;;;;;;31.40;19.92;;;;;;;5.88;100.00;99831.50;6221119;22;20022;-69
2024/02/18 05:57:53;;;;;;;27.23;19.60;;;;;;;5.81;100.00;99837.09;6276698;22;20003;-72
2024/02/18 06:00:21;;;;;;;25.77;18.98;;;;;;;5.87;100.00;99834.16;6211917;22;20087;-72
2024/02/18 06:02:46;;;;;;;30.10;20.40;;;;;;;5.77;100.00;99849.34;6207021;22;20319;-73
2024/02/18 06:05:15;;;;;;;28.38;19.77;;;;;;;5.82;100.00;99851.66;6201817;22;20077;-71
2024/02/18 06:07:41;;;;;;;29.10;19.98;;;;;;;5.77;100.00;99863.06;6231688;22;20079;-73
2024/02/18 06:10:06;;;;;;;24.95;18.73;;;;;;;5.81;100.00;99863.72;6204238;22;20865;-74
2024/02/18 06:12:32;;;;;;;27.25;18.60;;;;;;;5.82;100.00;99855.06;6230996;22;20011;-71
2024/02/18 06:14:57;;;;;;;26.73;19.63;;;;;;;5.67;100.00;99804.28;6204942;22;20065;-72
2024/02/18 06:17:25;;;;;;;28.95;20.48;;;;;;;5.73;100.00;99852.97;6204679;22;20015;-74
2024/02/18 06:19:50;;;;;;;27.92;19.42;;;;;;;5.36;100.00;99806.78;6201567;22;20459;-74
2024/02/18 06:22:16;;;;;;;28.27;19.00;;;;;;;5.76;100.00;99868.31;6204408;22;20069;-75
2024/02/18 06:24:41;;;;;;;26.17;19.48;;;;;;;5.81;100.00;99860.31;6225615;23;20012;-69
2024/02/18 06:27:06;;;;;;;28.52;19.88;;;;;;;5.82;100.00;99856.81;6226711;22;20039;-69
2024/02/18 06:29:32;;;;;;;28.17;19.65;;;;;;;5.82;100.00;99864.56;6203429;22;20016;-71
2024/02/18 06:32:00;;;;;;;26.42;18.67;;;;;;;5.85;100.00;99856.66;6193690;22;20880;-70
2024/02/18 06:34:25;;;;;;;28.08;18.80;;;;;;;5.91;100.00;99866.63;6199994;22;20177;-72
2024/02/18 06:36:50;;;;;;;27.98;19.88;;;;;;;5.97;100.00;99866.34;6229809;22;20042;-73
2024/02/18 06:39:18;;;;;;;25.77;18.65;;;;;;;5.94;100.00;99864.72;6225632;22;20483;-74
2024/02/18 06:41:44;;;;;;;26.45;19.58;;;;;;;6.03;100.00;99870.34;6253917;22;20079;-77
2024/02/18 06:44:12;;;;;;;28.02;20.77;;;;;;;5.89;100.00;99851.22;6200761;22;20032;-72
2024/02/18 06:46:38;;;;;;;27.98;20.30;;;;;;;5.98;100.00;99862.81;6203921;22;20122;-72
2024/02/18 06:49:05;;;;;;;28.33;19.45;;;;;;;6.03;100.00;99863.41;6201002;22;20092;-76
2024/02/18 06:51:31;;;;;;;28.25;19.33;;;;;;;6.00;100.00;99861.00;6228157;22;20015;-71
2024/02/18 06:53:57;;;;;;;26.48;18.58;;;;;;;6.01;100.00;99857.50;6203540;22;20018;-76
2024/02/18 06:56:25;;;;;;;31.00;19.52;;;;;;;6.13;100.00;99862.00;6203317;22;20007;-71
2024/02/18 06:58:50;;;;;;;28.60;19.30;;;;;;;6.07;100.00;99859.72;6224806;22;20090;-75
2024/02/18 07:01:18;;;;;;;27.83;19.27;;;;;;;6.07;100.00;99867.47;6204235;22;20015;-73
2024/02/18 07:03:43;;;;;;;28.95;18.95;;;;;;;6.06;100.00;99860.66;6221034;23;20376;-74
2024/02/18 07:06:11;;;;;;;26.38;18.25;;;;;;;6.09;100.00;99862.22;6202690;22;20098;-72
2024/02/18 07:08:36;;;;;;;27.40;19.70;;;;;;;6.10;100.00;99861.31;6203871;22;20012;-74
2024/02/18 07:11:02;;;;;;;27.95;19.60;;;;;;;6.13;100.00;99868.88;6201880;22;20488;-73
2024/02/18 07:13:28;;;;;;;31.58;19.80;;;;;;;6.12;100.00;99865.47;6203881;22;20729;-75
2024/02/18 07:15:54;;;;;;;27.20;19.73;;;;;;;6.14;100.00;99879.13;6228284;22;20011;-75
2024/02/18 07:18:22;;;;;;;27.73;20.05;;;;;;;6.10;100.00;99866.50;6203946;22;20011;-71
2024/02/18 07:20:50;;;;;;;27.00;19.35;;;;;;;5.84;100.00;99817.09;6229544;22;20007;-68
2024/02/18 07:23:15;;;;;;;27.05;19.35;;;;;;;6.05;100.00;99861.56;6202773;22;20016;-74
2024/02/18 07:25:42;;;;;;;29.13;19.98;;;;;;;5.75;100.00;99821.03;6229610;22;20012;-72
2024/02/18 07:28:07;;;;;;;26.75;19.08;;;;;;;5.82;100.00;99831.00;6225675;22;20046;-72
2024/02/18 07:30:32;;;;;;;27.58;18.52;;;;;;;6.11;100.00;99878.47;6256278;22;20008;-72
2024/02/18 07:32:58;;;;;;;28.55;19.60;;;;;;;6.03;100.00;99870.34;6204924;22;20091;-70
2024/02/18 07:35:24;;;;;;;29.25;20.13;;;;;;;6.10;100.00;99874.25;6229114;22;20132;-73
2024/02/18 07:37:49;;;;;;;26.75;19.48;;;;;;;6.11;100.00;99876.72;6205556;22;20012;-71
2024/02/18 07:40:17;;;;;;;27.90;19.85;;;;;;;6.05;100.00;99871.06;6228876;22;20093;-71
2024/02/18 07:42:45;;;;;;;27.45;19.52;;;;;;;6.13;100.00;99884.38;6207626;22;20644;-73
2024/02/18 07:45:13;;;;;;;26.15;18.88;;;;;;;6.10;100.00;99874.25;6202461;22;20061;-73
2024/02/18 07:47:38;;;;;;;26.75;18.38;;;;;;;5.92;100.00;99837.31;6206227;22;19999;-71
2024/02/18 07:50:04;;;;;;;25.67;18.65;;;;;;;6.19;100.00;99881.47;6227258;22;20011;-73
2024/02/18 07:52:31;;;;;;;27.17;19.83;;;;;;;5.91;100.00;99848.56;6203490;22;20022;-74
2024/02/18 07:54:57;;;;;;;29.70;20.10;;;;;;;6.07;100.00;99880.38;6206317;22;20107;-75
2024/02/18 07:57:22;;;;;;;29.02;19.80;;;;;;;6.01;100.00;99874.75;6227915;22;20074;-75
2024/02/18 07:59:47;;;;;;;27.33;19.83;;;;;;;5.93;100.00;99855.31;6207556;22;20094;-75
2024/02/18 08:02:15;;;;;;;27.05;19.65;;;;;;;6.14;100.00;99884.28;6198209;23;20187;-75
2024/02/18 08:04:43;;;;;;;29.75;20.02;;;;;;;6.22;100.00;99890.78;6252359;22;20007;-71
2024/02/18 08:07:08;;;;;;;30.55;20.63;;;;;;;6.19;100.00;99885.78;6202547;22;20007;-74
2024/02/18 08:09:33;;;;;;;28.13;19.50;;;;;;;6.19;100.00;99878.88;6232313;22;20015;-73
2024/02/18 08:11:59;;;;;;;27.08;19.40;;;;;;;6.22;100.00;99889.03;6228688;22;20090;-74
2024/02/18 08:14:25;;;;;;;28.23;19.88;;;;;;;6.28;100.00;99883.53;6202574;22;20496;-71
2024/02/18 08:16:50;;;;;;;29.58;20.95;;;;;;;6.26;100.00;99884.53;6225756;22;20068;-76
2024/02/18 08:19:18;;;;;;;28.23;18.92;;;;;;;6.27;100.00;99887.03;6202078;22;20019;-74
2024/02/18 08:21:43;;;;;;;28.10;19.88;;;;;;;6.29;100.00;99876.63;6232301;22;20012;-73
2024/02/18 08:24:09;;;;;;;30.05;21.20;;;;;;;6.00;100.00;99819.69;6223050;22;20026;-71
2024/02/18 08:26:37;;;;;;;27.10;19.25;;;;;;;6.34;100.00;99878.00;6200949;22;20022;-75
2024/02/18 08:29:05;;;;;;;26.20;19.45;;;;;;;6.39;100.00;99866.56;6229290;22;20003;-69
2024/02/18 08:31:30;;;;;;;26.70;19.85;;;;;;;6.42;100.00;99880.16;6205772;22;20015;-74
2024/02/18 08:33:56;;;;;;;24.75;18.90;;;;;;;6.43;100.00;99876.66;6200977;22;20677;-70
2024/02/18 08:36:24;;;;;;;31.90;19.75;;;;;;;6.46;100.00;99876.50;6199688;23;20137;-76
2024/02/18 08:38:50;;;;;;;27.67;19.90;;;;;;;6.56;100.00;99888.91;6224062;22;20015;-74
2024/02/18 08:41:16;;;;;;;30.98;20.85;;;;;;;6.26;100.00;99823.38;6201470;22;20023;-71
2024/02/18 08:43:45;;;;;;;28.17;19.92;;;;;;;6.62;100.00;99886.78;6231022;22;20015;-77
2024/02/18 08:46:11;;;;;;;30.02;19.60;;;;;;;6.65;100.00;99885.78;6203822;22;20018;-77
2024/02/18 08:48:43;;;;;;;26.33;19.92;;;;;;;6.65;100.00;99876.25;6205959;22;20651;-74
2024/02/18 08:51:14;;;;;;;28.25;20.00;;;;;;;6.70;100.00;99878.59;6204907;22;20405;-73
2024/02/18 08:53:42;;;;;;;25.63;19.42;;;;;;;6.71;100.00;99878.47;6202387;22;20007;-69
2024/02/18 08:56:10;;;;;;;26.65;19.25;;;;;;;6.73;100.00;99875.81;6230702;22;20008;-68
2024/02/18 08:58:38;;;;;;;27.95;19.73;;;;;;;6.72;100.00;99875.00;6227724;22;20076;-73
2024/02/18 09:01:04;;;;;;;27.13;19.80;;;;;;;6.80;100.00;99890.06;6232060;22;20849;-75
2024/02/18 09:03:31;;;;;;;27.52;20.13;;;;;;;6.77;100.00;99877.28;6201587;22;20008;-74
2024/02/18 09:06:01;;;;;;;29.02;20.52;;;;;;;6.79;100.00;99867.72;6229505;22;20518;-75
2024/02/18 09:08:29;;;;;;;30.17;19.55;;;;;;;6.88;100.00;99880.09;6230255;22;20106;-72
2024/02/18 09:10:54;;;;;;;29.60;20.23;;;;;;;6.86;100.00;99865.59;6229329;22;20061;-75
2024/02/18 09:13:23;;;;;;;27.40;20.33;;;;;;;6.89;100.00;99861.06;6230010;22;20770;-75
2024/02/18 09:15:48;;;;;;;29.38;21.13;;;;;;;6.60;100.00;99820.59;6228536;22;20814;-73
2024/02/18 09:18:14;;;;;;;28.95;20.20;;;;;;;6.93;100.00;99865.13;6205969;22;20062;-76
2024/02/18 09:20:43;;;;;;;29.00;20.98;;;;;;;6.94;100.00;99873.75;6227391;22;20094;-73
2024/02/18 09:23:08;;;;;;;33.08;23.20;;;;;;;6.94;100.00;99876.31;6204513;22;20003;-75
2024/02/18 09:25:34;;;;;;;29.83;22.25;;;;;;;6.85;100.00;99867.34;6202459;22;20018;-70
2024/02/18 09:27:59;;;;;;;34.65;23.88;;;;;;;7.00;100.00;99864.78;6203773;22;20449;-73
2024/02/18 09:30:26;;;;;;;28.33;20.90;;;;;;;7.03;100.00;99872.38;6229468;22;20012;-76
2024/02/18 09:32:51;;;;;;;29.02;20.95;;;;;;;6.93;100.00;99862.53;6201139;22;20110;-69
2024/02/18 09:35:17;;;;;;;28.48;20.13;;;;;;;6.70;100.00;99813.97;6231073;22;20019;-75
2024/02/18 09:37:42;;;;;;;26.42;20.35;;;;;;;7.05;100.00;99866.16;6224568;22;20123;-75
2024/02/18 09:40:09;;;;;;;25.88;19.63;;;;;;;7.16;100.00;99864.72;6231875;22;20624;-75
2024/02/18 09:42:39;;;;;;;24.83;17.30;;;;;;;7.25;100.00;99861.56;6201599;22;20011;-75
2024/02/18 09:45:05;;;;;;;24.10;16.70;;;;;;;7.34;100.00;99865.31;6204045;22;20103;-74
2024/02/18 09:47:31;;;;;;;24.08;16.80;;;;;;;7.43;100.00;99859.59;6255252;22;20098;-73
2024/02/18 09:50:00;;;;;;;24.60;18.05;;;;;;;7.29;100.00;99819.06;6230914;22;20007;-78
2024/02/18 09:52:28;;;;;;;26.08;18.65;;;;;;;7.51;100.00;99852.19;6202442;22;20019;-73
2024/02/18 09:54:53;;;;;;;24.55;18.30;;;;;;;7.55;100.00;99850.25;6202699;22;20038;-76
2024/02/18 09:57:19;;;;;;;27.13;19.58;;;;;;;7.62;100.00;99852.34;6204258;22;20742;-73
2024/02/18 09:59:46;;;;;;;31.13;21.80;;;;;;;7.67;100.00;99859.84;6228330;22;20201;-74
2024/02/18 10:02:12;;;;;;;73.72;39.95;;;;;;;7.71;100.00;99853.56;6228987;22;20012;-73
2024/02/18 10:04:46;;;;;;;57.85;34.45;;;;;;;7.81;100.00;99849.47;6226555;22;20708;-74
2024/02/18 10:07:13;;;;;;;43.72;27.30;;;;;;;8.01;100.00;99850.78;6230077;22;20019;-77
2024/02/18 10:09:39;;;;;;;39.35;27.50;;;;;;;8.15;100.00;99846.47;6197483;22;20581;-75
2024/02/18 10:12:08;;;;;;;27.38;20.20;;;;;;;8.02;100.00;99802.41;6200582;22;20047;-75
2024/02/18 10:14:36;;;;;;;24.20;17.40;;;;;;;8.42;100.00;99849.88;6200859;22;20464;-75
2024/02/18 10:17:01;;;;;;;22.85;14.85;;;;;;;8.58;100.00;99849.72;6222792;22;20011;-76
2024/02/18 10:19:30;;;;;;;20.15;15.23;;;;;;;8.77;100.00;99851.91;6200918;22;20012;-72
2024/02/18 10:22:00;;;;;;;22.70;15.38;;;;;;;8.89;100.00;99839.88;6222670;22;20012;-73
2024/02/18 10:24:25;;;;;;;;;;;;;;;9.01;100.00;99841.63;6233515;22;21103;-71
2024/02/18 10:26:53;;;;;;;18.83;12.60;;;;;;;9.08;100.00;99831.66;6203954;22;19907;-74
2024/02/18 10:29:19;;;;;;;18.38;13.43;;;;;;;9.18;100.00;99830.13;6203485;22;20035;-75
2024/02/18 10:31:44;;;;;;;19.50;13.65;;;;;;;9.35;100.00;99844.50;6202778;22;20042;-72
2024/02/18 10:34:10;;;;;;;17.90;11.93;;;;;;;9.35;100.00;99835.91;6202522;22;20282;-74
2024/02/18 10:36:38;;;;;;;15.93;11.40;;;;;;;9.38;100.00;99831.31;6201963;22;20012;-71
2024/02/18 10:39:05;;;;;;;17.00;12.50;;;;;;;9.50;100.00;99829.63;6228522;22;20007;-69
2024/02/18 10:41:40;;;;;;;17.88;12.85;;;;;;;9.62;100.00;99820.97;6206291;22;20016;-69
2024/02/18 10:44:17;;;;;;;16.92;11.57;;;;;;;9.57;100.00;99775.50;6201653;22;20039;-68
2024/02/18 10:46:43;;;;;;;17.10;11.38;;;;;;;9.89;100.00;99811.31;6229491;22;20003;-68
2024/02/18 10:49:25;;;;;;;18.42;11.90;;;;;;;10.07;100.00;99793.56;6203506;22;20018;-68
2024/02/18 10:52:10;;;;;;;15.70;11.10;;;;;;;10.25;100.00;99788.78;6224443;22;20634;-66
2024/02/18 10:54:40;;;;;;;16.17;10.85;;;;;;;10.30;100.00;99799.66;6203968;22;20019;-67
2024/02/18 10:57:06;;;;;;;16.10;10.80;;;;;;;10.39;100.00;99799.00;6198948;22;20042;-67
2024/02/18 10:59:49;;;;;;;18.48;11.82;;;;;;;10.24;100.00;99758.50;6229627;22;20012;-67
2024/02/18 11:02:19;;;;;;;18.25;11.75;;;;;;;10.54;100.00;99784.84;6222338;22;20558;-68
2024/02/18 11:04:45;;;;;;;21.52;13.98;;;;;;;10.70;100.00;99781.09;6220242;22;20057;-66
2024/02/18 11:07:13;;;;;;;33.10;20.05;;;;;;;10.96;100.00;99782.50;6219696;22;20447;-68
2024/02/18 11:09:42;;;;;;;43.60;28.08;;;;;;;11.25;100.00;99778.59;6225021;22;20007;-68
2024/02/18 11:12:09;;;;;;;44.80;27.25;;;;;;;11.60;100.00;99775.78;6221103;22;20026;-68
2024/02/18 11:14:35;;;;;;;43.67;26.70;;;;;;;11.77;100.00;99768.41;6197877;22;20692;-67